Terminal Aerodrome Forecast
Issued by NWS

Home | Current Version | Previous Version | Text Only | Print | Product List | Glossary On
Versions: 1 2 3 4 5 6 7 8 9 10 11 12 13 14 15 16 17 18 19 20 21 22 23 24 25 26 27 28 29
000
FTAK31 PAFA 231738
TAFAGA
TAF
PAGA 231738Z 2318/2418 VRB04KT P6SM SKC
     FM232100 12006KT P6SM SCT035 BKN050 OVC100
     FM240000 12008KT P6SM VCSH SCT025 BKN035 OVC050
     FM240300 12008KT 6SM -SN SCT015 BKN025 OVC035
     FM240600 10005KT 4SM -SN BR BKN015 OVC025=

USA.gov is the U.S. government's official web portal to all federal, state and local government web resources and services.